Time;durP1;ratioP1;P1;durP2;ratioP2;P2;SDS_P1;SDS_P2;PMS_P1;PMS_P2;Temp;Humidity;BMP_temperature;BMP_pressure;BME280_temperature;BME280_humidity;BME280_pressure;Samples;Min_cycle;Max_cycle;Signal;HPM_P1;HPM_P2
2022/01/30 00:01:22;;;;;;;9.60;5.80;;;;;;;2.17;54.75;100280.13;5053748;28;20029;-37
2022/01/30 00:03:47;;;;;;;11.18;6.40;;;;;;;1.95;55.99;100273.28;5053904;28;20025;-36
2022/01/30 00:06:13;;;;;;;14.40;6.60;;;;;;;1.94;55.35;100269.00;5053460;28;20465;-36
2022/01/30 00:08:38;;;;;;;11.60;6.53;;;;;;;1.86;55.74;100264.41;5051928;28;20392;-37
2022/01/30 00:11:12;;;;;;;10.93;5.93;;;;;;;1.83;55.40;100267.31;5053250;28;20048;-36
2022/01/30 00:13:37;;;;;;;14.43;6.55;;;;;;;1.89;55.58;100261.53;5053434;28;20447;-36
2022/01/30 00:16:06;;;;;;;11.32;6.07;;;;;;;1.71;56.58;100261.34;5053607;28;20029;-37
2022/01/30 00:23:27;;;;;;;10.07;5.45;;;;;;;1.86;55.27;100259.16;5053338;28;20017;-36
2022/01/30 00:25:55;;;;;;;10.15;5.40;;;;;;;1.58;56.30;100257.28;5053641;28;20031;-37
2022/01/30 00:28:24;;;;;;;9.60;5.55;;;;;;;1.45;56.51;100258.34;5053481;28;20147;-37
2022/01/30 00:30:49;;;;;;;9.07;5.13;;;;;;;1.46;56.60;100262.63;5053307;28;20021;-37
2022/01/30 00:33:15;;;;;;;11.32;5.68;;;;;;;1.32;57.38;100260.38;5053112;28;20021;-37
2022/01/30 00:35:40;;;;;;;10.50;5.57;;;;;;;1.47;56.16;100256.44;5051910;28;20075;-37
2022/01/30 00:38:15;;;;;;;10.45;5.63;;;;;;;1.50;56.95;100261.38;5053100;28;20032;-37
2022/01/30 00:40:40;;;;;;;10.10;4.97;;;;;;;1.54;56.16;100269.84;5053063;28;20029;-37
2022/01/30 00:43:06;;;;;;;9.77;5.35;;;;;;;1.56;56.30;100262.66;5053071;28;20051;-37
2022/01/30 00:45:31;;;;;;;12.52;5.63;;;;;;;1.69;56.00;100260.63;5052958;28;20036;-37
2022/01/30 00:47:56;;;;;;;9.85;5.43;;;;;;;1.70;55.28;100246.56;5053123;28;20414;-37
2022/01/30 00:50:22;;;;;;;13.68;6.30;;;;;;;1.52;55.45;100243.75;5052868;28;20036;-37
2022/01/30 00:52:53;;;;;;;9.95;5.43;;;;;;;1.47;56.34;100245.94;5052821;28;20033;-37
2022/01/30 00:55:19;;;;;;;9.85;5.70;;;;;;;1.46;55.75;100238.19;5052836;28;20463;-37
2022/01/30 00:57:44;;;;;;;12.48;6.28;;;;;;;1.53;56.34;100228.84;5052912;28;20047;-37
2022/01/30 01:00:10;;;;;;;13.00;6.85;;;;;;;1.43;55.81;100225.34;5052707;28;20115;-37
2022/01/30 01:02:36;;;;;;;10.27;5.78;;;;;;;1.26;56.80;100213.69;5052846;28;20029;-37
2022/01/30 01:05:05;;;;;;;11.40;6.40;;;;;;;1.50;56.64;100208.09;5052712;28;20031;-37
2022/01/30 01:07:34;;;;;;;10.55;6.13;;;;;;;1.38;56.60;100199.50;5052861;28;20057;-37
2022/01/30 01:10:12;;;;;;;10.45;5.70;;;;;;;1.30;56.05;100199.34;5052248;28;20068;-37
2022/01/30 01:25:53;;;;;;;11.13;5.65;;;;;;;1.34;55.66;100151.75;5052181;28;20094;-38
2022/01/30 01:28:19;;;;;;;9.63;5.47;;;;;;;1.44;55.59;100149.13;5050864;28;20049;-37
2022/01/30 01:30:45;;;;;;;11.02;5.50;;;;;;;1.39;56.62;100151.34;5052150;28;20102;-37
2022/01/30 01:33:11;;;;;;;10.20;5.28;;;;;;;1.42;54.96;100132.72;5051982;28;20193;-37
2022/01/30 01:35:37;;;;;;;10.70;6.05;;;;;;;1.36;55.68;100138.50;5052030;28;20684;-37
2022/01/30 01:38:04;;;;;;;8.48;4.82;;;;;;;1.18;56.05;100133.03;5051895;28;20040;-37
2022/01/30 01:40:29;;;;;;;9.30;5.50;;;;;;;1.08;56.71;100129.56;5052157;28;20037;-37
2022/01/30 01:42:56;;;;;;;9.77;5.95;;;;;;;1.17;55.34;100123.53;5051980;28;20036;-36
2022/01/30 01:45:23;;;;;;;9.82;5.65;;;;;;;1.06;56.99;100113.97;5051646;28;20029;-37
2022/01/30 01:47:50;;;;;;;10.13;5.72;;;;;;;0.98;56.94;100106.78;5031763;28;20108;-36
2022/01/30 01:50:37;;;;;;;9.30;5.68;;;;;;;0.91;56.59;100099.56;5031662;28;20032;-36
2022/01/30 01:53:04;;;;;;;11.48;5.85;;;;;;;0.83;56.12;100115.13;5031368;28;20041;-36
2022/01/30 01:55:30;;;;;;;8.68;5.35;;;;;;;0.66;57.33;100104.31;5029877;28;20029;-36
2022/01/30 01:57:55;;;;;;;9.48;5.20;;;;;;;0.53;57.75;100098.44;5031395;28;20033;-36
2022/01/30 02:00:20;;;;;;;11.13;5.45;;;;;;;0.71;57.27;100101.31;5031227;28;20087;-37
2022/01/30 02:02:46;;;;;;;10.63;5.80;;;;;;;0.73;57.37;100091.53;5031176;28;20028;-35
2022/01/30 02:05:12;;;;;;;10.52;5.82;;;;;;;0.40;57.91;100088.19;5031128;28;20139;-37
2022/01/30 02:10:29;;;;;;;10.10;5.82;;;;;;;0.73;57.90;100086.28;5050778;28;20103;-36
2022/01/30 02:13:07;;;;;;;10.35;5.82;;;;;;;0.90;57.27;100087.47;5050727;28;20033;-36
2022/01/30 02:23:55;;;;;;;10.13;5.80;;;;;;;1.01;57.32;100081.25;5051183;28;20040;-36
2022/01/30 02:23:59;;;;;;;9.93;5.65;;;;;;;0.88;56.96;100084.13;5050021;28;20079;-37
2022/01/30 02:26:27;;;;;;;10.98;5.85;;;;;;;0.78;57.62;100084.06;5051024;28;20056;-37
2022/01/30 02:28:54;;;;;;;11.88;6.88;;;;;;;0.86;56.62;100079.03;5051277;28;20120;-37
2022/01/30 02:31:21;;;;;;;10.65;6.00;;;;;;;1.09;57.16;100079.66;5051204;28;20033;-37
2022/01/30 02:33:47;;;;;;;13.32;6.50;;;;;;;0.92;57.83;100072.44;5051147;28;20052;-37
2022/01/30 02:36:12;;;;;;;11.15;7.15;;;;;;;0.85;57.63;100071.28;5051245;28;20353;-36
2022/01/30 02:38:37;;;;;;;13.02;6.60;;;;;;;0.93;57.85;100067.06;5051558;28;20037;-36
2022/01/30 02:41:03;;;;;;;11.02;5.72;;;;;;;0.69;56.39;100056.91;5051591;28;20571;-36
2022/01/30 02:43:35;;;;;;;13.13;6.82;;;;;;;0.67;57.75;100053.59;5051249;28;20052;-36
2022/01/30 02:46:10;;;;;;;9.65;6.15;;;;;;;0.46;59.07;100061.50;5051446;28;20017;-37
2022/01/30 02:48:54;;;;;;;10.98;5.88;;;;;;;0.33;58.37;100059.06;5051239;28;20024;-37
2022/01/30 02:51:22;;;;;;;11.18;6.07;;;;;;;0.05;59.00;100054.50;5051159;28;20481;-37
2022/01/30 02:53:57;;;;;;;10.25;5.50;;;;;;;0.29;58.99;100041.97;5051228;28;20119;-37
2022/01/30 02:56:22;;;;;;;11.45;6.35;;;;;;;0.37;58.67;100041.31;5051376;28;20392;-36
2022/01/30 02:58:48;;;;;;;10.15;5.68;;;;;;;0.31;58.38;100037.44;5051535;28;20057;-36
2022/01/30 03:01:13;;;;;;;12.50;6.20;;;;;;;0.32;58.18;100033.84;5051361;28;20033;-36
2022/01/30 03:03:38;;;;;;;10.80;6.15;;;;;;;0.15;59.27;100003.03;5051189;28;20104;-37
2022/01/30 03:06:04;;;;;;;12.13;6.60;;;;;;;0.40;58.32;100025.34;5050924;28;20471;-36
2022/01/30 03:08:29;;;;;;;10.48;5.97;;;;;;;0.25;58.90;100032.72;5051351;28;20025;-37
2022/01/30 03:10:55;;;;;;;12.32;6.10;;;;;;;0.22;58.55;100021.66;5051301;28;20045;-37
2022/01/30 03:13:20;;;;;;;11.65;6.00;;;;;;;0.26;58.17;100023.88;5051079;28;20025;-37
2022/01/30 03:15:46;;;;;;;9.30;5.57;;;;;;;0.30;59.60;100025.28;5051285;28;20534;-37
2022/01/30 03:18:11;;;;;;;9.90;5.63;;;;;;;0.38;57.69;100007.16;5051208;28;20024;-37
2022/01/30 03:20:37;;;;;;;10.65;5.93;;;;;;;0.28;58.24;100010.69;5051078;28;20469;-37
2022/01/30 03:23:03;;;;;;;10.65;5.78;;;;;;;0.10;58.91;100007.84;5051215;28;20028;-37
2022/01/30 03:25:30;;;;;;;11.05;5.40;;;;;;;0.30;59.77;100008.75;5050853;28;20078;-35
2022/01/30 03:27:56;;;;;;;12.10;5.78;;;;;;;0.37;58.81;100002.03;5050954;28;20033;-36
2022/01/30 03:30:28;;;;;;;11.70;5.68;;;;;;;0.44;59.58;100004.94;5050893;28;20036;-36
2022/01/30 03:32:53;;;;;;;11.52;5.53;;;;;;;0.42;58.39;99999.00;5050880;28;20079;-36
2022/01/30 03:35:19;;;;;;;9.25;4.90;;;;;;;0.13;58.33;99990.09;5051538;28;20029;-36
2022/01/30 03:37:44;;;;;;;10.27;5.00;;;;;;;0.02;59.85;99984.09;5053793;28;20024;-36
2022/01/30 03:40:10;;;;;;;11.68;5.45;;;;;;;0.22;57.70;99987.66;5054963;28;20454;-37
2022/01/30 03:42:36;;;;;;;9.38;5.18;;;;;;;0.18;57.73;99981.84;5054868;28;20098;-36
2022/01/30 03:45:01;;;;;;;11.05;5.80;;;;;;;0.33;58.90;99980.53;5054785;28;20497;-38
2022/01/30 03:47:27;;;;;;;8.45;5.20;;;;;;;0.27;57.51;99973.22;5054485;28;20401;-36
2022/01/30 03:49:52;;;;;;;8.52;5.20;;;;;;;0.44;57.52;99974.38;5054444;28;20473;-37
2022/01/30 03:52:18;;;;;;;10.95;5.38;;;;;;;0.32;56.94;99965.75;5054168;28;20032;-36
2022/01/30 03:54:44;;;;;;;11.48;5.75;;;;;;;0.23;57.90;99965.72;5055145;28;20029;-47
2022/01/30 03:57:09;;;;;;;10.35;5.18;;;;;;;0.16;58.35;99957.59;5053046;28;20508;-47
2022/01/30 03:59:35;;;;;;;8.90;5.20;;;;;;;-0.12;58.64;99956.47;5054287;28;20033;-47
2022/01/30 04:02:01;;;;;;;8.45;5.22;;;;;;;0.06;59.46;99954.06;5054258;28;20029;-48
2022/01/30 04:04:26;;;;;;;11.30;5.80;;;;;;;0.09;58.26;99945.97;5054468;28;20040;-49
2022/01/30 04:06:52;;;;;;;9.88;5.45;;;;;;;0.37;56.99;99945.25;5054446;28;20037;-51
2022/01/30 04:09:17;;;;;;;10.32;5.80;;;;;;;0.52;57.51;99950.13;5053850;28;20041;-48
2022/01/30 04:11:43;;;;;;;7.88;4.97;;;;;;;0.64;56.61;99949.06;5054684;28;20029;-50
2022/01/30 04:14:09;;;;;;;9.77;5.60;;;;;;;0.60;56.86;99942.44;5054517;28;20104;-49
2022/01/30 04:16:34;;;;;;;11.00;5.82;;;;;;;0.43;57.79;99943.09;5054324;28;20509;-48
2022/01/30 04:19:00;;;;;;;9.02;5.20;;;;;;;0.51;57.52;99943.22;5053797;28;20449;-48
2022/01/30 04:21:26;;;;;;;9.27;5.10;;;;;;;0.35;57.67;99943.75;5053840;28;20043;-47
2022/01/30 04:23:51;;;;;;;9.23;5.43;;;;;;;0.29;57.04;99941.66;5053945;28;20017;-49
2022/01/30 04:26:17;;;;;;;9.73;5.38;;;;;;;0.15;57.55;99934.97;5053732;28;20029;-48
2022/01/30 04:28:42;;;;;;;15.77;6.10;;;;;;;0.19;57.58;99937.22;5054033;28;20029;-49
2022/01/30 04:31:08;;;;;;;11.18;5.25;;;;;;;-0.32;57.86;99934.63;5053769;28;20477;-47
2022/01/30 04:33:34;;;;;;;10.38;5.80;;;;;;;-0.09;57.32;99932.69;5053916;28;20025;-48
2022/01/30 04:36:04;;;;;;;10.05;5.65;;;;;;;-0.08;57.99;99936.94;5053808;28;20419;-48
2022/01/30 04:38:40;;;;;;;9.30;5.50;;;;;;;-0.04;57.87;99944.41;5053524;28;20110;-49
2022/01/30 04:57:34;;;;;;;10.68;6.03;;;;;;;-0.22;58.01;99946.78;5053131;28;20439;-48
2022/01/30 05:07:57;;;;;;;10.73;5.32;;;;;;;-0.31;57.50;99944.13;5053261;28;20503;-48
2022/01/30 05:10:23;;;;;;;9.93;5.30;;;;;;;-0.42;57.75;99952.84;5053158;28;20053;-49
2022/01/30 05:12:52;;;;;;;9.27;4.72;;;;;;;-0.52;58.55;99939.72;5053187;28;20025;-50
2022/01/30 05:15:20;;;;;;;10.38;5.22;;;;;;;-0.30;57.63;99937.94;5053302;28;20401;-49
2022/01/30 05:17:45;;;;;;;8.43;5.18;;;;;;;-0.22;57.04;99946.78;5052893;28;20033;-48
2022/01/30 05:20:11;;;;;;;9.05;5.00;;;;;;;-0.23;58.48;99944.28;5052762;28;20017;-48
2022/01/30 05:22:37;;;;;;;12.80;5.03;;;;;;;-0.38;57.79;99928.13;5052616;28;20028;-49
2022/01/30 05:25:03;;;;;;;8.15;4.72;;;;;;;-0.39;56.92;99926.44;5052484;28;20079;-50
2022/01/30 05:27:29;;;;;;;11.00;5.07;;;;;;;-0.43;57.42;99912.78;5052713;28;20090;-51
2022/01/30 05:29:54;;;;;;;8.25;4.90;;;;;;;-0.48;57.70;99914.13;5052805;28;20025;-50
2022/01/30 05:32:20;;;;;;;9.32;5.00;;;;;;;-0.36;56.62;99900.06;5052819;28;20455;-50
2022/01/30 05:34:45;;;;;;;9.70;5.38;;;;;;;-0.42;56.55;99883.09;5052621;28;20052;-48
2022/01/30 05:37:11;;;;;;;9.75;5.18;;;;;;;-0.41;56.78;99876.88;5052429;28;20603;-50
2022/01/30 05:39:37;;;;;;;11.13;5.47;;;;;;;-0.06;55.40;99865.22;5034905;28;20025;-48
2022/01/30 05:42:03;;;;;;;10.13;5.70;;;;;;;-0.15;56.75;99863.41;5052846;28;20029;-49
2022/01/30 05:44:40;;;;;;;9.63;5.32;;;;;;;-0.29;56.32;99846.25;5041165;28;20470;-47
2022/01/30 05:47:10;;;;;;;9.10;5.15;;;;;;;-0.27;56.19;99838.28;5046499;28;20098;-49
2022/01/30 05:49:36;;;;;;;;;;;;;;;-0.20;56.32;99831.56;5052436;28;20539;-48
2022/01/30 05:52:02;;;;;;;10.65;5.28;;;;;;;0.00;55.90;99824.63;5051764;28;19930;-51
2022/01/30 05:54:27;;;;;;;11.25;5.68;;;;;;;0.42;54.21;99813.97;5051682;28;20397;-49
2022/01/30 05:56:53;;;;;;;9.55;5.00;;;;;;;0.60;56.39;99803.63;5047087;28;20029;-48
2022/01/30 05:59:18;;;;;;;8.80;5.05;;;;;;;0.76;53.76;99801.28;5037047;28;20025;-48
2022/01/30 06:01:43;;;;;;;8.02;4.53;;;;;;;0.84;52.96;99792.72;5037126;28;20029;-48
2022/01/30 06:04:09;;;;;;;9.48;4.78;;;;;;;1.24;52.24;99786.44;5050640;28;20025;-49
2022/01/30 06:06:34;;;;;;;8.95;4.65;;;;;;;1.43;51.22;99777.69;5051729;28;20059;-48
2022/01/30 06:09:18;;;;;;;9.57;4.93;;;;;;;1.62;50.54;99770.69;5051470;28;20510;-51
2022/01/30 06:11:50;;;;;;;8.77;4.57;;;;;;;1.84;50.96;99775.56;5050728;28;20033;-52
2022/01/30 06:14:22;;;;;;;8.43;4.55;;;;;;;2.15;49.10;99775.25;5049115;28;20078;-51
2022/01/30 06:16:50;;;;;;;26.17;11.35;;;;;;;2.45;48.20;99757.47;5049986;28;20494;-51
2022/01/30 06:19:18;;;;;;;22.20;10.00;;;;;;;2.53;47.79;99755.75;5049990;28;20495;-48
2022/01/30 06:21:44;;;;;;;7.75;4.53;;;;;;;2.67;47.56;99757.03;5049950;28;20025;-49
2022/01/30 06:24:09;;;;;;;10.05;5.03;;;;;;;2.81;47.26;99755.66;5049379;28;20456;-51
2022/01/30 06:26:35;;;;;;;9.45;4.45;;;;;;;2.58;46.41;99759.75;5047951;28;20024;-49
2022/01/30 06:29:00;;;;;;;6.60;3.88;;;;;;;2.81;46.18;99766.16;5049790;28;20040;-49
2022/01/30 06:31:27;;;;;;;8.45;4.05;;;;;;;3.13;45.61;99777.91;5049845;28;20029;-52
2022/01/30 06:33:52;;;;;;;7.63;4.28;;;;;;;3.55;44.36;99792.13;5049649;28;20144;-51
2022/01/30 06:36:18;;;;;;;8.10;4.90;;;;;;;3.16;45.03;99792.53;5050564;28;20025;-49
2022/01/30 06:38:43;;;;;;;8.98;4.78;;;;;;;3.49;45.20;99797.00;5050826;28;20441;-50
2022/01/30 06:41:08;;;;;;;12.73;6.30;;;;;;;3.52;45.29;99795.88;5050480;28;20342;-50
2022/01/30 06:43:34;;;;;;;10.07;5.30;;;;;;;3.58;45.17;99791.78;5050817;28;20070;-52
2022/01/30 06:46:00;;;;;;;7.45;4.30;;;;;;;3.66;45.05;99797.91;5051395;28;20025;-49
2022/01/30 06:48:26;;;;;;;7.13;4.30;;;;;;;4.04;43.93;99792.31;5050582;28;20072;-37
2022/01/30 06:50:51;;;;;;;8.32;5.03;;;;;;;3.77;44.22;99791.56;5050550;28;20033;-51
2022/01/30 06:53:17;;;;;;;10.60;5.35;;;;;;;3.84;44.37;99803.09;5050009;28;20086;-49
2022/01/30 06:55:42;;;;;;;9.65;5.32;;;;;;;4.20;44.13;99791.53;5049088;28;20456;-37
2022/01/30 06:58:14;;;;;;;8.90;5.10;;;;;;;4.33;43.91;99799.78;5051210;28;20090;-50
2022/01/30 07:00:39;;;;;;;9.90;5.45;;;;;;;4.44;44.05;99799.50;5049123;28;20029;-51
2022/01/30 07:03:05;;;;;;;7.93;4.80;;;;;;;4.68;42.76;99792.59;5027153;28;20051;-51
2022/01/30 07:05:30;;;;;;;6.63;4.65;;;;;;;4.59;42.84;99783.00;5046922;28;20025;-52
2022/01/30 07:07:56;;;;;;;8.45;4.80;;;;;;;4.75;42.67;99792.78;5045226;28;20117;-50
2022/01/30 07:10:21;;;;;;;9.10;5.00;;;;;;;5.10;41.80;99786.31;5049975;28;20071;-53
2022/01/30 07:12:47;;;;;;;13.48;4.50;;;;;;;4.58;42.19;99774.28;5048935;28;20025;-52
2022/01/30 07:15:13;;;;;;;11.95;4.72;;;;;;;5.07;41.90;99782.19;5049872;28;20151;-50
2022/01/30 07:17:38;;;;;;;10.07;4.40;;;;;;;4.77;42.01;99783.69;5050125;28;20029;-49
2022/01/30 07:20:05;;;;;;;8.07;5.03;;;;;;;5.07;41.50;99784.84;5050287;28;20025;-50
2022/01/30 07:22:30;;;;;;;8.90;5.10;;;;;;;5.03;41.44;99772.97;5050148;28;20050;-49
2022/01/30 07:24:56;;;;;;;9.75;5.70;;;;;;;5.28;41.31;99780.84;5050050;28;20075;-51
2022/01/30 07:27:21;;;;;;;16.52;8.02;;;;;;;5.48;40.11;99768.09;5050399;28;20115;-52
2022/01/30 07:29:47;;;;;;;9.15;4.90;;;;;;;5.48;40.09;99755.72;5049865;28;20032;-51
2022/01/30 07:32:12;;;;;;;7.13;4.28;;;;;;;5.48;39.83;99749.59;5049998;28;20033;-50
2022/01/30 07:34:37;;;;;;;7.88;4.68;;;;;;;5.75;39.44;99740.44;5049913;28;20024;-52
2022/01/30 07:37:03;;;;;;;8.00;4.53;;;;;;;5.55;39.42;99741.84;5050207;28;20025;-51
2022/01/30 07:39:30;;;;;;;5.93;4.20;;;;;;;5.88;38.76;99732.78;5048846;28;20186;-51
2022/01/30 07:41:56;;;;;;;8.30;4.50;;;;;;;6.15;37.38;99719.28;5049961;28;20064;-52
2022/01/30 07:44:22;;;;;;;5.38;3.60;;;;;;;5.68;37.57;99721.00;5049828;28;20047;-51
2022/01/30 07:46:47;;;;;;;6.63;3.88;;;;;;;5.93;37.77;99726.97;5050081;28;20025;-52
2022/01/30 07:49:13;;;;;;;5.70;3.33;;;;;;;5.65;37.90;99722.19;5049926;28;20524;-51
2022/01/30 07:51:38;;;;;;;6.70;3.42;;;;;;;6.48;38.30;99719.06;5050054;28;20075;-50
2022/01/30 07:54:04;;;;;;;6.28;4.00;;;;;;;5.88;37.97;99724.03;5050055;28;20033;-51
2022/01/30 07:56:29;;;;;;;5.97;3.60;;;;;;;6.94;50.69;99733.03;5050028;28;20362;-51
2022/01/30 07:58:55;;;;;;;7.03;3.97;;;;;;;6.53;40.69;99737.84;5049577;28;20025;-52
2022/01/30 08:01:20;;;;;;;6.38;3.88;;;;;;;6.97;41.12;99722.09;5048607;28;20470;-53
2022/01/30 08:03:46;;;;;;;8.45;3.88;;;;;;;6.80;40.48;99720.63;5049791;28;20028;-53
2022/01/30 08:06:11;;;;;;;7.00;3.33;;;;;;;7.08;36.94;99722.66;5049790;28;20017;-52
2022/01/30 08:08:37;;;;;;;8.38;4.00;;;;;;;5.81;37.97;99709.88;5049642;28;20050;-49
2022/01/30 08:11:02;;;;;;;6.13;3.47;;;;;;;5.25;40.06;99717.84;5049665;28;20068;-51
2022/01/30 08:13:28;;;;;;;6.18;3.65;;;;;;;4.88;40.08;99714.81;5049437;28;20463;-51
2022/01/30 08:15:53;;;;;;;9.32;4.35;;;;;;;4.96;39.52;99705.22;5049719;28;20033;-50
2022/01/30 08:18:19;;;;;;;8.18;3.92;;;;;;;5.12;40.38;99694.63;5049469;28;20033;-50
2022/01/30 08:20:44;;;;;;;5.97;4.07;;;;;;;4.77;43.29;99691.41;5050539;28;20028;-49
2022/01/30 08:23:15;;;;;;;8.63;4.45;;;;;;;4.89;40.78;99678.69;5052391;28;20029;-48
2022/01/30 08:25:42;;;;;;;6.00;3.42;;;;;;;4.63;41.00;99668.38;5052308;28;20661;-49
2022/01/30 08:28:07;;;;;;;6.60;3.10;;;;;;;4.56;39.54;99670.03;5052006;28;20531;-48
2022/01/30 08:30:33;;;;;;;9.05;4.60;;;;;;;4.96;39.70;99663.03;5052706;28;20025;-38
2022/01/30 08:32:59;;;;;;;9.88;4.57;;;;;;;4.65;40.10;99672.50;5052001;28;20044;-37
2022/01/30 08:35:25;;;;;;;11.88;3.90;;;;;;;4.76;41.07;99675.75;5052381;28;20052;-37
2022/01/30 08:37:50;;;;;;;7.32;4.20;;;;;;;4.90;39.53;99680.34;5051935;28;20090;-38
2022/01/30 08:40:17;;;;;;;6.70;4.10;;;;;;;4.52;41.45;99692.44;5053149;28;20047;-37
2022/01/30 08:42:43;;;;;;;9.32;4.47;;;;;;;4.81;41.52;99705.09;5053114;28;20413;-37
2022/01/30 08:45:09;;;;;;;8.98;4.35;;;;;;;5.08;40.64;99695.97;5053146;28;20040;-37
2022/01/30 08:47:35;;;;;;;6.35;4.05;;;;;;;4.66;40.44;99689.97;5052908;28;20467;-36
2022/01/30 08:50:00;;;;;;;7.55;4.10;;;;;;;4.75;40.87;99672.31;5052730;28;20032;-38
2022/01/30 08:52:26;;;;;;;17.10;7.47;;;;;;;4.55;40.48;99663.94;5052282;28;20449;-38
2022/01/30 08:54:52;;;;;;;7.90;4.30;;;;;;;4.71;40.13;99642.00;5052979;28;20091;-38
2022/01/30 08:57:17;;;;;;;8.43;3.92;;;;;;;4.58;39.52;99634.59;5052751;28;20476;-38
2022/01/30 08:59:43;;;;;;;7.20;3.80;;;;;;;4.67;39.10;99643.31;5034412;28;20051;-38
2022/01/30 09:02:08;;;;;;;7.32;4.10;;;;;;;7.21;72.47;99659.31;5052513;28;20029;-53
2022/01/30 09:04:34;;;;;;;9.05;4.10;;;;;;;7.09;37.25;99647.56;5050601;28;20075;-50
2022/01/30 09:06:59;;;;;;;6.57;3.60;;;;;;;5.63;36.13;99630.91;5052421;28;20037;-50
2022/01/30 09:09:25;;;;;;;7.13;3.92;;;;;;;5.07;36.61;99616.00;5050859;28;20049;-51
2022/01/30 09:11:51;;;;;;;6.78;3.67;;;;;;;4.92;37.62;99612.44;5052114;28;20021;-52
2022/01/30 09:14:16;;;;;;;7.03;3.53;;;;;;;4.87;37.59;99620.03;5052425;28;20043;-49
2022/01/30 09:16:44;;;;;;;7.90;3.60;;;;;;;4.86;36.84;99610.50;5052348;28;20110;-50
2022/01/30 09:19:09;;;;;;;6.03;3.53;;;;;;;4.48;37.68;99615.53;5051925;28;20036;-52
2022/01/30 09:21:34;;;;;;;10.30;4.18;;;;;;;4.67;38.18;99601.16;5051681;28;20091;-53
2022/01/30 09:24:00;;;;;;;9.20;3.88;;;;;;;4.92;41.75;99601.09;5051856;28;20013;-39
2022/01/30 09:26:25;;;;;;;8.98;4.13;;;;;;;5.43;38.37;99594.41;5052132;28;20024;-49
2022/01/30 09:28:51;;;;;;;6.07;3.67;;;;;;;4.91;37.79;99592.31;5052237;28;20024;-37
2022/01/30 09:31:16;;;;;;;22.20;9.35;;;;;;;4.48;37.09;99589.97;5051626;28;20017;-37
2022/01/30 09:33:42;;;;;;;10.38;3.30;;;;;;;4.78;36.28;99590.25;5051507;28;20357;-37
2022/01/30 09:36:07;;;;;;;6.07;3.38;;;;;;;4.57;36.16;99587.31;5051587;28;20104;-38
2022/01/30 09:38:33;;;;;;;5.50;3.60;;;;;;;4.69;36.81;99586.81;5051290;28;20021;-37
2022/01/30 09:40:58;;;;;;;6.32;3.78;;;;;;;4.75;36.96;99595.03;5051137;28;20543;-38
2022/01/30 09:43:24;;;;;;;8.85;4.30;;;;;;;4.86;37.98;99579.66;5033586;28;20017;-50
2022/01/30 09:45:50;;;;;;;7.40;3.95;;;;;;;5.09;38.13;99573.66;5033321;28;20024;-50
2022/01/30 09:48:17;;;;;;;7.57;4.32;;;;;;;5.58;38.02;99575.16;5050756;28;20423;-50
2022/01/30 09:50:42;;;;;;;7.22;4.10;;;;;;;5.73;36.19;99562.03;5050907;28;20099;-52
2022/01/30 09:53:08;;;;;;;7.97;4.35;;;;;;;5.31;36.81;99569.41;5051033;28;20164;-51
2022/01/30 09:55:33;;;;;;;9.68;4.32;;;;;;;5.40;36.64;99570.19;5050789;28;20071;-48
2022/01/30 09:57:59;;;;;;;8.63;3.88;;;;;;;5.51;36.05;99567.16;5050991;28;20020;-37
2022/01/30 10:00:24;;;;;;;9.10;3.72;;;;;;;5.71;35.34;99559.56;5049661;28;20473;-37
2022/01/30 10:02:50;;;;;;;6.65;3.65;;;;;;;5.68;35.41;99559.94;5050817;28;20021;-38
2022/01/30 10:05:16;;;;;;;10.18;4.60;;;;;;;6.02;35.47;99548.16;5051372;28;20480;-37
2022/01/30 10:07:44;;;;;;;9.73;4.47;;;;;;;5.79;36.34;99543.69;5051270;28;20100;-38
2022/01/30 10:10:11;;;;;;;11.43;4.63;;;;;;;5.94;35.96;99529.69;5051046;28;20128;-37
2022/01/30 10:12:41;;;;;;;7.97;4.72;;;;;;;6.16;36.73;99531.50;5050909;28;20024;-37
2022/01/30 10:15:16;;;;;;;8.40;4.35;;;;;;;6.60;36.78;99530.69;5033873;28;20029;-38
2022/01/30 10:17:48;;;;;;;8.27;4.50;;;;;;;6.61;35.82;99527.06;5046667;28;20044;-37
2022/01/30 10:20:25;;;;;;;10.93;5.82;;;;;;;7.20;34.55;99510.28;5031998;28;20033;-38
2022/01/30 10:22:54;;;;;;;10.57;4.50;;;;;;;6.75;35.29;99519.31;5034177;28;20025;-38
2022/01/30 10:25:40;;;;;;;8.93;4.50;;;;;;;7.11;34.81;99506.09;5031992;28;20074;-37
2022/01/30 10:28:19;;;;;;;7.47;4.40;;;;;;;7.13;34.26;99505.91;5027244;28;20033;-37
2022/01/30 10:30:46;;;;;;;10.50;5.13;;;;;;;7.16;34.98;99501.09;5031200;28;20103;-37
2022/01/30 10:33:13;;;;;;;9.77;4.97;;;;;;;7.59;34.20;99481.72;5030977;28;20040;-37
2022/01/30 10:35:57;;;;;;;8.27;4.63;;;;;;;8.06;32.82;99480.28;5030895;28;20108;-39
2022/01/30 10:38:25;;;;;;;7.95;3.90;;;;;;;8.37;31.78;99468.44;5030935;28;20477;-38
2022/01/30 10:41:11;;;;;;;8.45;4.38;;;;;;;8.16;32.91;99466.69;5030958;28;20113;-38
2022/01/30 10:43:56;;;;;;;8.82;4.15;;;;;;;8.31;33.34;99466.56;5030233;28;20036;-38
2022/01/30 10:46:26;;;;;;;7.75;4.22;;;;;;;8.56;32.69;99457.13;5030260;28;20021;-38
2022/01/30 10:48:56;;;;;;;10.85;4.00;;;;;;;8.64;32.22;99452.69;5030649;28;20025;-38
2022/01/30 10:51:21;;;;;;;8.40;4.30;;;;;;;9.57;31.58;99445.72;5030927;28;20021;-38
2022/01/30 10:53:49;;;;;;;8.05;4.30;;;;;;;9.31;31.26;99451.84;5030550;28;20036;-38
2022/01/30 10:56:19;;;;;;;11.23;4.40;;;;;;;8.93;31.88;99425.00;5030700;28;20064;-38
2022/01/30 10:59:04;;;;;;;9.43;4.63;;;;;;;8.81;32.25;99419.47;5036071;28;20112;-38
2022/01/30 11:01:29;;;;;;;10.77;4.18;;;;;;;9.08;32.55;99409.75;5049233;28;20417;-36
2022/01/30 11:04:00;;;;;;;5.75;3.58;;;;;;;9.54;30.66;99406.31;5049205;28;20024;-38
2022/01/30 11:06:27;;;;;;;6.13;3.50;;;;;;;9.68;29.87;99393.81;5050414;28;20041;-38
2022/01/30 11:08:53;;;;;;;8.38;3.20;;;;;;;9.38;29.74;99386.25;5049006;28;20028;-38
2022/01/30 11:11:34;;;;;;;4.72;2.80;;;;;;;9.41;29.94;99366.47;5050706;28;20075;-37
2022/01/30 11:19:16;;;;;;;5.57;3.22;;;;;;;10.43;29.04;99331.47;5050322;28;20051;-38
2022/01/30 11:21:43;;;;;;;5.07;3.08;;;;;;;10.30;29.14;99333.16;5050449;28;20031;-37
2022/01/30 11:24:10;;;;;;;7.00;3.50;;;;;;;9.96;29.46;99326.31;5050248;28;20028;-38
2022/01/30 11:26:36;;;;;;;7.32;4.10;;;;;;;10.26;30.59;99331.09;5048864;28;20079;-38
2022/01/30 11:29:01;;;;;;;6.30;3.28;;;;;;;10.11;30.27;99326.03;5049934;28;20029;-38
2022/01/30 11:31:27;;;;;;;5.78;3.53;;;;;;;10.56;30.04;99326.88;5050203;28;20119;-38
2022/01/30 11:33:54;;;;;;;8.40;3.47;;;;;;;11.12;29.89;99329.81;5048946;28;20036;-38
2022/01/30 11:36:21;;;;;;;11.68;4.85;;;;;;;11.39;29.06;99318.94;5050168;28;20037;-38
2022/01/30 11:38:47;;;;;;;10.60;4.65;;;;;;;11.16;29.40;99309.69;5032441;28;20029;-38
2022/01/30 11:41:16;;;;;;;9.75;4.97;;;;;;;11.42;29.40;99305.16;5048771;28;20028;-38
2022/01/30 11:44:17;;;;;;;10.50;4.07;;;;;;;11.46;29.69;99293.84;5050195;28;20028;-37
2022/01/30 11:46:52;;;;;;;12.77;4.35;;;;;;;12.22;28.71;99286.47;5049968;28;20029;-38
2022/01/30 11:49:18;;;;;;;9.25;4.15;;;;;;;11.86;30.02;99272.09;5048698;28;20029;-39
2022/01/30 11:51:51;;;;;;;6.45;3.40;;;;;;;11.62;30.14;99262.34;5049617;28;20021;-38
2022/01/30 11:54:31;;;;;;;7.13;2.75;;;;;;;11.47;30.68;99268.03;5049898;28;20032;-38
2022/01/30 11:56:57;;;;;;;5.63;2.53;;;;;;;11.85;29.79;99267.00;5052901;28;20029;-38
2022/01/30 11:59:38;;;;;;;4.63;2.60;;;;;;;11.62;30.91;99263.13;5053510;28;20024;-38
2022/01/30 12:02:23;;;;;;;11.35;4.00;;;;;;;11.67;30.90;99271.28;5053728;28;20037;-38
2022/01/30 12:04:56;;;;;;;5.88;2.53;;;;;;;11.68;30.62;99272.09;5053867;28;20025;-38
2022/01/30 12:07:42;;;;;;;3.95;2.20;;;;;;;12.44;30.21;99281.44;5053694;28;20108;-38
2022/01/30 12:10:24;;;;;;;6.55;3.45;;;;;;;12.54;29.45;99272.88;5053174;28;20420;-38
2022/01/30 12:13:06;;;;;;;4.57;2.42;;;;;;;12.45;29.91;99277.75;5053697;28;20103;-50
2022/01/30 12:15:41;;;;;;;3.35;2.08;;;;;;;12.11;29.95;99279.22;5052762;28;20581;-49
2022/01/30 12:18:10;;;;;;;5.22;2.10;;;;;;;12.90;31.20;99290.59;5051829;28;20568;-49
2022/01/30 12:20:57;;;;;;;4.15;1.60;;;;;;;12.51;29.62;99271.50;5053453;28;20013;-37
2022/01/30 12:23:30;;;;;;;7.75;1.90;;;;;;;12.06;30.42;99287.88;5053338;28;20051;-38
2022/01/30 12:26:14;;;;;;;2.03;1.70;;;;;;;11.93;30.60;99275.50;5053388;28;20131;-37
2022/01/30 12:28:42;;;;;;;8.13;1.75;;;;;;;12.48;29.90;99276.47;5053400;28;20031;-37
2022/01/30 12:31:34;;;;;;;2.53;1.77;;;;;;;12.25;29.84;99275.31;5051770;28;20020;-38
2022/01/30 12:34:14;;;;;;;4.88;2.30;;;;;;;12.13;30.28;99272.63;5052702;28;20033;-37